Admiral Hornblower — WSQ7555 — position and weather

sailwx.info

Track history (hours):
 
Tides and Currents Weather Stations Pressure Air Temp Water Temp Dewpoint Dewpoint Depression Visibility Wind Speed Wind Dir Waves Ship Positions

Admiral Hornblower

Owner: Hornblower Cruises and Events, San Diego, CA. More information available from US FCC via Universal Licensing System and Coast Guard Vessel Documentation Center.

Last reported at 2018-Jun-25 04:49 UTC. Time now 2018-Jun-25 15:50 UTC.
Position N 32°43' W 117°11'.

Length 46 m; draft 3.4 m.

Type: Passenger vessel. MMSI: 366970120.

Date/timePositionNaut miles runAvg speedWind from/ knotsBaromVisibWave heightAir tempDewpointWater temp
2018-Jun-25 04:49N 32°43' W 117°11'2 5.1
2018-Jun-25 04:27N 32°41' W 117°09'0 0.2
2018-Jun-25 03:58N 32°41' W 117°09'2 5.2
2018-Jun-25 03:30N 32°43' W 117°12'2 5.0
2018-Jun-25 03:00N 32°42' W 117°14'2 4.2
2018-Jun-25 02:30N 32°43' W 117°12'2 0.7
2018-Jun-25 00:22N 32°43' W 117°11'0 1.2
2018-Jun-25 00:00N 32°43' W 117°10'1 1.6
2018-Jun-24 23:30N 32°43' W 117°11'2 3.5
2018-Jun-24 23:01N 32°43' W 117°13'2 4.1
2018-Jun-24 22:28N 32°43' W 117°11'3 4.6
2018-Jun-24 21:54N 32°41' W 117°09'3 6.0
2018-Jun-24 21:27N 32°43' W 117°10'0 0.6
2018-Jun-24 21:00N 32°43' W 117°10'0 0.0
2018-Jun-24 20:26N 32°43' W 117°10'  
Track history (hours):
 
Tides and Currents Weather Stations Pressure Air Temp Water Temp Dewpoint Dewpoint Depression Visibility Wind Speed Wind Dir Waves Ship Positions

Admiral Hornblower

Owner: Hornblower Cruises and Events, San Diego, CA. More information available from US FCC via Universal Licensing System and Coast Guard Vessel Documentation Center.

Last reported at 2018-Jun-25 04:49 UTC. Time now 2018-Jun-25 15:50 UTC.
Position N 32°43' W 117°11'.

Length 46 m; draft 3.4 m.

Type: Passenger vessel. MMSI: 366970120.

Date/timePositionNaut miles runAvg speedWind from/ knotsBaromVisibWave heightAir tempDewpointWater temp
2018-Jun-25 04:49N 32°43' W 117°11'2 5.1
2018-Jun-25 04:27N 32°41' W 117°09'0 0.2
2018-Jun-25 03:58N 32°41' W 117°09'2 5.2
2018-Jun-25 03:30N 32°43' W 117°12'2 5.0
2018-Jun-25 03:00N 32°42' W 117°14'2 4.2
2018-Jun-25 02:30N 32°43' W 117°12'2 0.7
2018-Jun-25 00:22N 32°43' W 117°11'0 1.2
2018-Jun-25 00:00N 32°43' W 117°10'1 1.6
2018-Jun-24 23:30N 32°43' W 117°11'2 3.5
2018-Jun-24 23:01N 32°43' W 117°13'2 4.1
2018-Jun-24 22:28N 32°43' W 117°11'3 4.6
2018-Jun-24 21:54N 32°41' W 117°09'3 6.0
2018-Jun-24 21:27N 32°43' W 117°10'0 0.6
2018-Jun-24 21:00N 32°43' W 117°10'0 0.0
2018-Jun-24 20:26N 32°43' W 117°10'  

Dump ship's entire track history